Latest Weather Observations for Mount Read

IDT60801

Issued at 3:21 pm EST Monday 23 September 2019 (issued every 10 minutes, with the page automatically refreshed every 10 minutes)

About weather observations | Map of weather stations | Latest weather observations for TAS | Other Formats
Station Details ID: 097085 Name: MOUNT READ Lat: -41.84 Lon: 145.54 Height: 1119.5 m
Data from the previous 72 hours. | See also: Recent months at Mount Read
Date/Time
EST
Temp
°C
App
Temp
°C
Dew
Point
°C
Rel
Hum
%
Delta-T
°C
Wind Press
QNH
hPa
Press
MSL
hPa
Rain since
9am
mm
Dir  Spd
km/h
Gust
km/h
Spd
kts
Gust
kts
23/03:00pm - - - - - WSW 32 39 17 21 1017.9 1019.7 2.2
23/02:30pm - - - - - W 28 39 15 21 1017.9 1019.7 2.2
23/02:00pm - - - - - W 20 28 11 15 1017.9 1019.7 2.2
23/01:30pm - - - - - WSW 22 37 12 20 1017.9 1019.7 2.2
23/01:00pm - - - - - WSW 26 37 14 20 1017.7 1019.5 2.2
23/12:30pm - - - - - SW 19 30 10 16 1017.8 1019.6 2.2
23/12:00pm - - - - - SSW 20 28 11 15 1017.6 1019.4 2.0
23/11:30am - - - - - SSW 19 28 10 15 1017.6 1019.4 1.4
23/11:00am - - - - - WSW 22 33 12 18 1017.4 1019.3 1.0
23/10:30am - - - - - W 17 24 9 13 1017.6 1019.4 0.4
23/10:00am - - - - - WSW 17 24 9 13 1017.6 1019.4 0.0
23/09:30am - - - - - WSW 13 22 7 12 1017.3 1019.1 0.0
23/09:00am - - - - - W 11 17 6 9 1017.2 1019.0 17.8
23/08:30am - - - - - W 13 20 7 11 1017.0 1018.8 17.8
23/08:00am - - - - - WSW 17 22 9 12 1016.6 1018.3 16.8
23/07:30am - - - - - W 17 22 9 12 1016.3 1018.1 16.2
23/07:00am - - - - - WNW 17 20 9 11 1016.2 1018.0 15.6
23/06:30am - - - - - WNW 19 24 10 13 1015.9 1017.7 15.4
23/06:00am - - - - - WNW 13 17 7 9 1015.7 1017.4 15.4
23/05:30am - - - - - WNW 15 20 8 11 1015.4 1017.2 15.2
23/05:00am - - - - - NW 11 17 6 9 1015.3 1017.1 15.2
23/04:30am - - - - - NNW 13 17 7 9 1015.3 1017.1 15.2
23/04:00am - - - - - NNW 11 15 6 8 1015.3 1017.1 15.2
23/03:30am - - - - - NNW 15 22 8 12 1015.3 1017.1 15.0
23/03:00am - - - - - N 15 20 8 11 1015.4 1017.2 15.0
23/02:30am - - - - - N 17 24 9 13 1015.6 1017.3 15.0
23/02:00am - - - - - NNW 19 22 10 12 1015.8 1017.5 15.0
23/01:30am - - - - - NNW 11 19 6 10 1016.2 1018.0 15.0
23/01:00am - - - - - NNW 9 15 5 8 1016.6 1018.3 15.0
23/12:30am - - - - - CALM 0 0 0 0 1016.7 1018.5 15.0
23/12:00am - - - - - CALM 0 0 0 0 1016.7 1018.5 15.0
 
Date/Time
EST
Temp
°C
App
Temp
°C
Dew
Point
°C
Rel
Hum
%
Delta-T
°C
Wind Press
QNH
hPa
Press
MSL
hPa
Rain since
9am
mm
Dir  Spd
km/h
Gust
km/h
Spd
kts
Gust
kts
22/11:30pm - - - - - CALM 0 0 0 0 1016.8 1018.6 15.0
22/11:00pm - - - - - CALM 0 0 0 0 1017.0 1018.8 15.0
22/10:30pm - - - - - NNW 13 24 7 13 1017.1 1018.9 15.0
22/10:00pm - - - - - NW 17 26 9 14 1016.9 1018.7 15.0
22/09:30pm - - - - - NW 17 24 9 13 1017.1 1018.9 15.0
22/09:00pm - - - - - NW 17 26 9 14 1017.2 1019.0 15.0
22/08:30pm - - - - - WNW 15 22 8 12 1017.2 1019.0 15.0
22/08:00pm - - - - - NW 20 28 11 15 1017.1 1018.9 15.0
22/07:30pm - - - - - CALM 0 2 0 1 1016.8 1018.6 15.0
22/07:00pm - - - - - WNW 24 32 13 17 1016.4 1018.2 15.0
22/06:30pm - - - - - WNW 26 33 14 18 1016.0 1017.8 15.0
22/06:00pm - - - - - WNW 30 43 16 23 1015.9 1017.7 15.0
22/05:30pm - - - - - WNW 26 37 14 20 1016.0 1017.8 15.0
22/05:00pm - - - - - WNW 28 35 15 19 1015.7 1017.4 14.8
22/04:30pm - - - - - WNW 20 32 11 17 1015.6 1017.3 14.8
22/04:00pm - - - - - WNW 20 30 11 16 1015.4 1017.2 14.8
22/03:30pm - - - - - WNW 24 35 13 19 1015.4 1017.2 14.8
22/03:00pm - - - - - WNW 32 44 17 24 1015.2 1017.0 14.8
22/02:30pm - - - - - WNW 26 37 14 20 1015.0 1016.7 14.8
22/02:00pm - - - - - WNW 20 30 11 16 1015.2 1017.0 14.4
22/01:30pm - - - - - WNW 20 33 11 18 1015.4 1017.2 13.4
22/01:00pm - - - - - WNW 28 46 15 25 1015.1 1016.9 11.6
22/12:30pm - - - - - WNW 26 33 14 18 1015.1 1016.9 8.4
22/12:00pm - - - - - WNW 20 32 11 17 1015.1 1016.9 6.6
22/11:30am - - - - - WNW 20 30 11 16 1015.0 1016.7 5.2
22/11:00am - - - - - NW 13 28 7 15 1014.9 1016.6 4.2
22/10:30am - - - - - WNW 19 32 10 17 1014.9 1016.6 2.0
22/10:09am - - - - - WNW 6 37 3 20 1014.7 1016.4 1.2
22/10:00am - - - - - CALM 0 0 0 0 1014.8 1016.5 0.6
22/09:30am - - - - - CALM 0 0 0 0 1014.5 1016.3 0.0
22/09:00am - - - - - CALM 0 0 0 0 1014.4 1016.2 10.8
22/08:30am - - - - - CALM 0 0 0 0 1013.9 1015.6 10.8
22/08:00am - - - - - CALM 0 0 0 0 1013.9 1015.6 10.8
22/07:30am - - - - - CALM 0 0 0 0 1013.3 1015.0 10.8
22/07:00am - - - - - CALM 0 0 0 0 1013.0 1014.7 10.8
22/06:30am - - - - - CALM 0 0 0 0 1012.5 1014.2 10.8
22/06:00am - - - - - CALM 0 0 0 0 1012.1 1013.8 10.8
22/05:30am - - - - - CALM 0 0 0 0 1011.4 1013.1 10.8
22/05:00am - - - - - CALM 0 0 0 0 1011.0 1012.6 10.8
22/04:30am - - - - - CALM 0 0 0 0 1010.8 1012.4 10.8
22/04:00am - - - - - CALM 0 0 0 0 1010.8 1012.4 10.8
22/03:30am - - - - - CALM 0 0 0 0 1010.8 1012.4 10.8
22/03:00am - - - - - CALM 0 0 0 0 1010.6 1012.3 10.8
22/02:30am - - - - - CALM 0 0 0 0 1010.6 1012.3 10.8
22/02:00am - - - - - CALM 0 0 0 0 1010.5 1012.2 10.6
22/01:30am - - - - - CALM 0 0 0 0 1010.5 1012.2 10.6
22/01:00am - - - - - W 22 32 12 17 1010.4 1012.0 10.6
22/12:30am - - - - - W 22 30 12 16 1010.3 1011.9 10.6
22/12:00am - - - - - W 33 43 18 23 1010.0 1011.6 10.6
 
Date/Time
EST
Temp
°C
App
Temp
°C
Dew
Point
°C
Rel
Hum
%
Delta-T
°C
Wind Press
QNH
hPa
Press
MSL
hPa
Rain since
9am
mm
Dir  Spd
km/h
Gust
km/h
Spd
kts
Gust
kts
21/11:30pm - - - - - W 35 48 19 26 1010.0 1011.6 10.4
21/11:00pm - - - - - W 30 43 16 23 1009.9 1011.5 10.4
21/10:30pm - - - - - W 37 48 20 26 1009.4 1011.0 10.0
21/10:00pm - - - - - W 37 56 20 30 1009.1 1010.7 9.8
21/09:59pm - - - - - W 37 56 20 30 1009.0 1010.6 9.8
21/09:30pm - - - - - WSW 43 57 23 31 1008.6 1010.2 9.4
21/09:00pm - - - - - W 39 52 21 28 1008.4 1010.0 9.2
21/08:30pm - - - - - WSW 35 52 19 28 1008.1 1009.6 8.8
21/08:00pm - - - - - W 39 54 21 29 1007.2 1008.7 8.8
21/07:30pm - - - - - W 33 46 18 25 1006.9 1008.4 8.6
21/07:00pm - - - - - W 43 59 23 32 1005.9 1007.3 8.4
21/06:30pm - - - - - W 48 65 26 35 1005.0 1006.4 8.2
21/06:25pm - - - - - W 44 65 24 35 1004.8 1006.3 8.0
21/06:00pm - - - - - W 50 69 27 37 1004.3 1005.7 7.2
21/05:30pm - - - - - W 52 83 28 45 1003.3 1004.7 6.2
21/05:26pm - - - - - WNW 48 76 26 41 1003.0 1004.4 5.8
21/05:00pm - - - - - NW 33 57 18 31 1002.3 1003.7 3.2
21/04:55pm - - - - - NNW 33 59 18 32 1001.7 1003.1 3.0
21/04:30pm - - - - - NNW 50 78 27 42 1000.5 1001.8 1.2
21/04:00pm - - - - - N 63 89 34 48 999.3 1000.6 1.0
21/03:33pm - - - - - N 61 80 33 43 998.8 1000.1 0.8
21/03:30pm - - - - - N 63 80 34 43 998.7 1000.0 0.8
21/03:02pm - - - - - N 63 82 34 44 999.4 1000.7 0.6
21/03:00pm - - - - - N 65 82 35 44 999.3 1000.6 0.6
21/02:38pm - - - - - NNE 52 74 28 40 999.8 1001.2 0.4
21/02:30pm - - - - - NNE 54 69 29 37 1000.2 1001.5 0.4
21/02:00pm - - - - - N 57 78 31 42 1001.4 1002.8 0.0
21/01:30pm - - - - - N 54 82 29 44 1001.6 1003.0 0.0
21/01:09pm - - - - - NNE 52 82 28 44 1001.4 1002.8 0.0
21/01:07pm - - - - - NNE 50 82 27 44 1001.3 1002.6 0.0
21/01:04pm - - - - - NNE 44 67 24 36 1001.3 1002.6 0.0
21/01:00pm - - - - - NNE 44 61 24 33 1001.5 1002.9 0.0
21/12:41pm - - - - - NNE 46 65 25 35 1001.7 1003.1 0.0
21/12:30pm - - - - - NNE 48 65 26 35 1002.3 1003.7 0.0
21/12:00pm - - - - - N 52 74 28 40 1002.8 1004.3 0.0
21/11:30am - - - - - NNE 48 70 26 38 1003.0 1004.4 0.0
21/11:00am - - - - - NNE 50 72 27 39 1003.1 1004.5 0.0
21/10:30am - - - - - NNE 50 76 27 41 1003.8 1005.3 0.0
21/10:07am - - - - - NNE 46 67 25 36 1004.8 1006.3 0.0
21/10:00am - - - - - NNE 50 69 27 37 1004.7 1006.2 0.0
21/09:30am - - - - - NNE 50 82 27 44 1005.2 1006.7 0.0
21/09:00am - - - - - NNE 46 76 25 41 1005.7 1007.2 0.0
21/08:30am - - - - - NNE 50 74 27 40 1005.9 1007.3 0.0
21/08:00am - - - - - NNE 54 95 29 51 1006.5 1008.0 0.0
21/07:52am - - - - - N 59 95 32 51 1006.3 1007.8 0.0
21/07:37am - - - - - N 50 74 27 40 1006.4 1007.9 0.0
21/07:30am - - - - - N 52 69 28 37 1006.6 1008.1 0.0
21/07:00am - - - - - N 46 65 25 35 1006.9 1008.4 0.0
21/06:34am - - - - - NNE 46 65 25 35 1007.2 1008.7 0.0
21/06:30am - - - - - NNE 46 63 25 34 1007.1 1008.6 0.0
21/06:00am - - - - - NNE 43 65 23 35 1007.0 1008.5 0.0
21/05:30am - - - - - NNE 48 69 26 37 1007.3 1008.8 0.0
21/05:00am - - - - - N 43 63 23 34 1007.4 1009.0 0.0
21/04:43am - - - - - N 46 72 25 39 1007.7 1009.3 0.0
21/04:30am - - - - - N 43 57 23 31 1008.1 1009.6 0.0
21/04:00am - - - - - N 43 63 23 34 1008.6 1010.2 0.0
21/03:30am - - - - - NNE 44 69 24 37 1009.0 1010.6 0.0
21/03:00am - - - - - NNE 43 70 23 38 1009.5 1011.1 0.0
21/02:30am - - - - - NNE 48 89 26 48 1009.8 1011.4 0.0
21/02:00am - - - - - NNE 50 82 27 44 1010.3 1011.9 0.0
21/01:30am - - - - - NNE 54 85 29 46 1010.6 1012.3 0.0
21/01:00am - - - - - NNE 46 70 25 38 1011.3 1013.0 0.0
21/12:30am - - - - - NNE 37 57 20 31 1012.8 1014.5 0.0
21/12:00am - - - - - NNE 43 61 23 33 1013.1 1014.8 0.0
 
Date/Time
EST
Temp
°C
App
Temp
°C
Dew
Point
°C
Rel
Hum
%
Delta-T
°C
Wind Press
QNH
hPa
Press
MSL
hPa
Rain since
9am
mm
Dir  Spd
km/h
Gust
km/h
Spd
kts
Gust
kts
20/11:30pm - - - - - NNE 39 61 21 33 1013.5 1015.3 0.0
20/11:00pm - - - - - NNE 30 48 16 26 1014.7 1016.4 0.0
20/10:53pm - - - - - NNE 28 48 15 26 1014.9 1016.6 0.0
20/10:30pm - - - - - NNE 39 57 21 31 1015.1 1016.9 0.0
20/10:04pm - - - - - NNE 41 61 22 33 1015.2 1017.0 0.0
20/10:00pm - - - - - NNE 39 57 21 31 1015.4 1017.2 0.0
20/09:30pm - - - - - NNE 48 65 26 35 1015.2 1017.0 0.0
20/09:00pm - - - - - N 43 50 23 27 1015.7 1017.4 0.0
20/08:30pm - - - - - N 44 54 24 29 1015.6 1017.3 0.0
20/08:09pm - - - - - N 43 63 23 34 1015.6 1017.3 0.0
20/08:00pm - - - - - N 39 56 21 30 1015.6 1017.3 0.0
20/07:30pm - - - - - N 44 65 24 35 1015.6 1017.3 0.0
20/07:27pm - - - - - N 44 65 24 35 1015.6 1017.3 0.0
20/07:00pm - - - - - N 41 50 22 27 1015.6 1017.3 0.0
20/06:30pm - - - - - N 50 65 27 35 1014.9 1016.6 0.0
20/06:00pm - - - - - N 50 65 27 35 1015.1 1016.9 0.0
20/05:30pm - - - - - N 56 70 30 38 1014.9 1016.6 0.0
20/05:07pm - - - - - N 43 70 23 38 1014.9 1016.6 0.0
20/05:00pm - - - - - N 41 57 22 31 1015.2 1017.0 0.0
20/04:34pm - - - - - N 44 63 24 34 1015.0 1016.7 0.0
20/04:30pm - - - - - N 44 61 24 33 1015.2 1017.0 0.0
20/04:08pm - - - - - N 44 63 24 34 1015.0 1016.7 0.0
20/04:00pm - - - - - N 46 61 25 33 1014.8 1016.5 0.0
20/03:35pm - - - - - N 46 67 25 36 1014.9 1016.6 0.0
20/03:30pm - - - - - N 46 59 25 32 1015.1 1016.9 0.0

Other formats

Comma delimited format used in spreadsheet applications
http://www.bom.gov.au/fwo/IDT60801/IDT60801.95952.axf

JavaScript Object Notation format (JSON) in row-major order
http://www.bom.gov.au/fwo/IDT60801/IDT60801.95952.json

Data quality

Most of these data are generated automatically and are frequently updated. Quality checks on data are not normally performed. It is possible for incorrect values to appear. Refer to information at About Latest Weather Observations and please check the disclaimer before using these data.